Villeneuve d'Ascq (59) - E

Date : 24/11/2013
Distance : 4,200 km

Place Nom Licence Catégorie Club Temps min/km CN à J-60 Points Différence Nouveau CN
1 CREFCOEUR Lievin 13758 H14 5907NO 0:32:27 7'43 3431 3266 -165 3434
2 URVOY Mateo 22540 H14 6203NO 0:39:35 9'25 3408 2677 -731 3628
3 THOMAS louis 29016 H12 6208NO 0:40:47 9'42 (2000) 2598 0
4 TASSART romuald 29023 H16 6208NO 0:41:00 9'45 2585 0
5 GUILLEMAIN Clément 29018 H14 6208NO 0:41:05 9'46 2579 0
6 DELCUSE Mathis 26817 H12 6205NO 0:41:17 9'49 2092 2567 +475 2061
7 VEROVE Apolline 24071 D14 5907NO 0:41:26 9'51 2446 2558 +112 2648
8 CALLENS Claire 28322 D14 6203NO 0:46:14 11'00 2292 2200
9 HUMBERTCLAUDE J-Paul 16205 H65 5909NO 0:48:04 11'26 4397 2205 -2192 4300
10 WULLUS J-Noel 9523 H60 5907NO 0:48:45 11'36 3954 2174 -1780 3954
11 EJSMONT Jean 5597 H65 6203NO 0:48:59 11'39 3970 2163 -1807 3949
12 DULARY Louise 27712 D14 6203NO 0:50:31 12'01 2382 2098 -284 2390
13 LAVALLEE Sylvan 26029 H14 6008PI 0:51:34 12'16 2598 2055 -543 2679
14 GOURLAIN Marguerite-marie 19155 D40 6205NO 0:54:22 12'56 2658 1949 -709 2847
15 GRESSIER Léa 24242 D14 6208NO 0:57:13 13'37 2435 1852 -583 1832
16 JASKINA Catherine 28714 D50 6203NO 0:59:24 14'08 1784 1713
17 GRENOUILLAT Annick 13087 D55 5907NO 1:02:34 14'53 2985 1694 -1291 2985
18 BAILLET Tom 28185 H12 5906NO 1:12:54 17'21 0 (2000) 1454 1359
19 TETU Alexandre 28691 H14 6203NO 1:13:38 17'31 1439 1319
20 PHILIPPS Marie Laure 28718 D50 6203NO 1:13:48 17'34 1436 1379
21 BAUD Sandrine 27612 D35 6203NO 1:13:51 17'35 1769 1435 -334 1703
22 TESSIER Jules 27300 H14 5907NO 1:28:05 20'58 1334 1203 -131 1290
23 THERY Sophie 27606 D35 6203NO 1:28:25 21'03 1335 1199 -136 1335
24 LUDEWIG-JAMES Carol 15894 D70 5907NO 1:42:33 24'25 2117 1033 -1084 2039
25 DURIEZ Corinne 27971 D45 6203NO 2:13:24 31'45 1293 794 -499 1293
26 DURIEZ Daniele 28692 D70 6203NO 2:13:27 31'46 794 0
POULAIN Odile 1948 D50 5909NO pm None 2712 0 2740
FAVIER elisa 25984 D12 6208NO pm None 1346 0 1656
CAROULLE matteo 29019 H12 6208NO pm None (2000) 0 0
GRESSIER Hugo 29021 H14 6208NO pm None 0 0
PECQUART Judicaël 28804 H14 6203NO pm None 0 0